YO8SDE-8 Weather Reports


Display with metric or nautical units.
time (UTC)temp
F
wind
direction
speed
MPH
gust
MPH
rain 1hr
in
rain 24hr
in
rain mn
in
humidity
%
barometer
mb
20260506124058 91 135 9.0 12.0 0.00 0.00 0.00 20 999.3
20260506123558 92 112 9.0 14.0 0.00 0.00 0.00 19 999.2
20260506123058 92 135 4.0 14.0 0.00 0.00 0.00 19 999.4
20260506122558 91 112 8.0 14.0 0.00 0.00 0.00 18 999.4
20260506122058 91 112 4.0 14.0 0.00 0.00 0.00 19 999.4
20260506121558 91 112 9.0 18.0 0.00 0.00 0.00 19 999.5
20260506121058 91 135 2.0 15.0 0.00 0.00 0.00 18 999.6
20260506120558 91 112 4.0 14.0 0.00 0.00 0.00 19 999.6
20260506120058 90 112 4.0 14.0 0.00 0.00 0.00 20 999.7
20260506115558 90 135 13.0 14.0 0.00 0.00 0.00 20 999.7
20260506115058 90 135 10.0 18.0 0.00 0.00 0.00 20 999.7
20260506114558 90 135 7.0 16.0 0.00 0.00 0.00 19 999.7
20260506114058 91 112 7.0 15.0 0.00 0.00 0.00 18 999.8
20260506113558 90 135 7.0 13.0 0.00 0.00 0.00 19 999.9
20260506113058 90 135 13.0 15.0 0.00 0.00 0.00 20 1000.0
20260506112558 89 135 8.0 17.0 0.00 0.00 0.00 20 1000.1
20260506112058 89 112 11.0 17.0 0.00 0.00 0.00 19 1000.1
20260506111558 90 112 10.0 13.0 0.00 0.00 0.00 20 1000.1
20260506111058 90 157 10.0 13.0 0.00 0.00 0.00 21 1000.2
20260506110558 89 112 5.0 15.0 0.00 0.00 0.00 21 1000.4
20260506110058 89 112 10.0 15.0 0.00 0.00 0.00 21 1000.2
20260506105558 89 112 14.0 18.0 0.00 0.00 0.00 21 1000.2
20260506105058 90 135 6.0 15.0 0.00 0.00 0.00 21 1000.3
20260506104558 90 157 6.0 14.0 0.00 0.00 0.00 21 1000.4
20260506104058 91 112 6.0 14.0 0.00 0.00 0.00 21 1000.5
20260506103558 92 135 13.0 15.0 0.00 0.00 0.00 21 1000.2
20260506103058 92 112 4.0 10.0 0.00 0.00 0.00 23 1000.4
20260506102558 92 112 0.0 8.0 0.00 0.00 0.00 26 1000.4
20260506102058 91 135 2.0 8.0 0.00 0.00 0.00 27 1000.4
20260506101558 91 135 7.0 7.0 0.00 0.00 0.00 31 1000.5
20260506101058 91 67 5.0 7.0 0.00 0.00 0.00 31 1000.5
20260506100558 91 45 4.0 5.0 0.00 0.00 0.00 32 1000.6
20260506100058 91 112 2.0 6.0 0.00 0.00 0.00 31 1000.7
20260506095558 90 45 0.0 4.0 0.00 0.00 0.00 32 1000.6
20260506095058 90 45 4.0 6.0 0.00 0.00 0.00 33 1000.8
20260506094558 89 90 0.0 6.0 0.00 0.00 0.00 33 1000.8
20260506094058 89 112 1.0 6.0 0.00 0.00 0.00 34 1000.8
20260506093558 89 112 1.0 8.0 0.00 0.00 0.00 35 1000.8
20260506093058 88 112 4.0 6.0 0.00 0.00 0.00 35 1000.9
20260506092558 88 112 0.0 9.0 0.00 0.00 0.00 35 1001.0
20260506092058 88 112 5.0 5.0 0.00 0.00 0.00 36 1000.9
20260506091558 87 112 0.0 6.0 0.00 0.00 0.00 36 1001.0
20260506091058 87 112 4.0 5.0 0.00 0.00 0.00 36 1001.0
20260506090558 86 112 0.0 7.0 0.00 0.00 0.00 36 1001.1
20260506090058 86 90 1.0 5.0 0.00 0.00 0.00 36 1001.1
20260506085558 85 67 4.0 4.0 0.00 0.00 0.00 37 1001.1
20260506085058 85 67 0.0 5.0 0.00 0.00 0.00 37 1001.2
20260506084558 84 90 0.0 5.0 0.00 0.00 0.00 38 1001.1
20260506084058 84 112 0.0 7.0 0.00 0.00 0.00 38 1001.1
20260506083558 84 90 0.0 5.0 0.00 0.00 0.00 38 1001.2
20260506083058 83 112 0.0 4.0 0.00 0.00 0.00 39 1001.2
20260506082558 82 67 4.0 5.0 0.00 0.00 0.00 39 1001.2
20260506082058 81 67 0.0 5.0 0.00 0.00 0.00 40 1001.2
20260506081558 80 67 4.0 4.0 0.00 0.00 0.00 41 1001.4
20260506081058 80 67 2.0 5.0 0.00 0.00 0.00 42 1001.2
20260506080558 79 112 1.0 6.0 0.00 0.00 0.00 42 1001.3
20260506073059 74 135 4.0 5.0 0.00 0.00 0.00 48 1001.3
20260506072558 74 112 5.0 6.0 0.00 0.00 0.00 49 1001.3
20260506072059 73 112 4.0 5.0 0.00 0.00 0.00 50 1001.2
20260506071559 73 112 5.0 5.0 0.00 0.00 0.00 50 1001.3
20260506071059 72 67 0.0 3.0 0.00 0.00 0.00 51 1001.3
20260506070559 71 45 0.0 4.0 0.00 0.00 0.00 52 1001.4
20260506062059 64 135 0.0 5.0 0.00 0.00 0.00 62 1001.4
20260506061559 64 112 0.0 4.0 0.00 0.00 0.00 63 1001.5
20260506061059 63 135 4.0 6.0 0.00 0.00 0.00 64 1001.5
20260506060559 62 112 0.0 5.0 0.00 0.00 0.00 64 1001.6
20260506051059 58 67 0.0 2.0 0.00 0.00 0.00 67 1001.6
20260506050559 58 90 0.0 0.0 0.00 0.00 0.00 67 1001.5
20260506045059 57 45 0.0 3.0 0.00 0.00 0.00 67 1001.5
20260506044559 57 67 0.0 3.0 0.00 0.00 0.00 67 1001.4
20260506044059 55 45 1.0 1.0 0.00 0.00 0.00 67 1001.2
20260506043559 54 67 0.0 0.0 0.00 0.00 0.00 67 1001.3
20260506043059 52 45 0.0 0.0 0.00 0.00 0.00 67 1001.3
20260506042559 51 112 0.0 0.0 0.00 0.00 0.00 66 1001.4
20260506042059 50 112 0.0 0.0 0.00 0.00 0.00 67 1001.2
20260506041559 49 112 0.0 0.0 0.00 0.00 0.00 67 1001.1
20260506041059 48 112 0.0 0.0 0.00 0.00 0.00 67 1001.1
20260506040559 48 112 0.0 0.0 0.00 0.00 0.00 67 1001.2
20260506040059 48 112 0.0 1.0 0.00 0.00 0.00 68 1001.1
20260506035559 48 135 0.0 0.0 0.00 0.00 0.00 68 1001.1
20260506035059 49 135 0.0 0.0 0.00 0.00 0.00 68 1001.1
20260506034559 49 112 0.0 0.0 0.00 0.00 0.00 69 1001.1
20260506034059 49 112 0.0 0.0 0.00 0.00 0.00 69 1001.2
20260506033559 49 67 0.0 0.0 0.00 0.00 0.00 70 1001.1
20260506033059 49 67 0.0 0.0 0.00 0.00 0.00 71 1001.0
20260506032559 50 67 0.0 0.0 0.00 0.00 0.00 71 1001.0
20260506032059 50 67 0.0 0.0 0.00 0.00 0.00 71 1001.0
20260506031559 50 67 0.0 0.0 0.00 0.00 0.00 72 1000.9
20260506031059 50 45 0.0 0.0 0.00 0.00 0.00 72 1000.9
20260506030559 51 45 0.0 0.0 0.00 0.00 0.00 72 1001.0
20260506030059 51 22 0.0 0.0 0.00 0.00 0.00 71 1000.9
20260506025559 51 22 0.0 0.0 0.00 0.00 0.00 70 1000.8
20260506025059 51 45 0.0 0.0 0.00 0.00 0.00 70 1000.8
20260506024559 51 45 0.0 0.0 0.00 0.00 0.00 69 1000.8
20260506024059 52 45 0.0 0.0 0.00 0.00 0.00 69 1000.8
20260506023559 52 45 0.0 0.0 0.00 0.00 0.00 68 1000.8
20260506023059 52 45 0.0 0.0 0.00 0.00 0.00 67 1000.6
20260506022559 52 45 0.0 0.0 0.00 0.00 0.00 66 1000.6
20260506022059 53 45 0.0 0.0 0.00 0.00 0.00 65 1000.5
20260506021559 53 67 0.0 0.0 0.00 0.00 0.00 64 1000.5
20260506021059 54 112 0.0 0.0 0.00 0.00 0.00 62 1000.5
20260506020559 55 112 0.0 0.0 0.00 0.00 0.00 61 1000.4
20260506020059 55 135 0.0 0.0 0.00 0.00 0.00 61 1000.4
20260506015559 56 135 0.0 0.0 0.00 0.00 0.00 61 1000.4
20260506015059 56 135 0.0 0.0 0.00 0.00 0.00 60 1000.5
20260506014559 57 135 0.0 0.0 0.00 0.00 0.00 60 1000.4
20260506014059 57 180 0.0 0.0 0.00 0.00 0.00 59 1000.4
20260506013559 58 180 0.0 3.0 0.00 0.00 0.00 58 1000.4
20260506013059 58 180 0.0 5.0 0.00 0.00 0.00 58 1000.4
20260506012559 59 180 0.0 5.0 0.00 0.00 0.00 58 1000.4
20260506012059 59 157 0.0 6.0 0.00 0.00 0.00 59 1000.4
20260506011559 59 180 6.0 7.0 0.00 0.00 0.00 59 1000.3
20260506011059 58 157 0.0 7.0 0.00 0.00 0.00 59 1000.3
20260506010559 58 135 6.0 6.0 0.00 0.00 0.00 59 1000.3
20260506010059 58 135 4.0 4.0 0.00 0.00 0.00 57 1000.3
20260506005559 58 135 0.0 0.0 0.00 0.00 0.00 57 1000.3
20260506005059 58 135 0.0 0.0 0.00 0.00 0.00 56 1000.0
20260506004559 59 135 0.0 0.0 0.00 0.00 0.00 55 1000.1
20260506004059 59 180 0.0 0.0 0.00 0.00 0.00 54 1000.3
20260506003559 60 180 0.0 0.0 0.00 0.00 0.00 54 1000.3
20260506003059 60 180 0.0 0.0 0.00 0.00 0.00 54 1000.2
20260506002559 61 180 0.0 5.0 0.00 0.00 0.00 54 1000.2
20260506002059 61 135 0.0 10.0 0.00 0.00 0.00 53 1000.2
20260506001559 61 157 5.0 6.0 0.00 0.00 0.00 53 1000.1
20260506001059 61 180 3.0 4.0 0.00 0.00 0.00 52 1000.2
20260506000559 62 180 0.0 5.0 0.00 0.00 0.00 52 1000.1
20260506000059 62 180 3.0 8.0 0.00 0.00 0.00 52 1000.1
20260505235559 62 180 4.0 13.0 0.00 0.00 0.00 53 1000.1
20260505235059 62 202 7.0 9.0 0.00 0.00 0.00 53 1000.1
20260505234559 61 180 3.0 11.0 0.00 0.00 0.00 54 1000.0
20260505234059 61 180 1.0 7.0 0.00 0.00 0.00 54 1000.0
20260505233559 60 202 4.0 5.0 0.00 0.00 0.00 55 1000.0
20260505233059 60 202 6.0 6.0 0.00 0.00 0.00 55 1000.1
20260505232559 59 202 0.0 4.0 0.00 0.00 0.00 55 1000.1
20260505232059 59 180 0.0 3.0 0.00 0.00 0.00 54 1000.1
20260505231559 59 180 0.0 0.0 0.00 0.00 0.00 53 1000.1
20260505231059 60 157 0.0 0.0 0.00 0.00 0.00 52 1000.1
20260505230559 60 157 0.0 0.0 0.00 0.00 0.00 52 1000.1
20260505230059 61 157 0.0 0.0 0.00 0.00 0.00 51 1000.2
20260505225559 62 157 0.0 0.0 0.00 0.00 0.00 50 1000.1
20260505225059 62 157 0.0 0.0 0.00 0.00 0.00 51 1000.1
20260505224559 63 157 0.0 0.0 0.00 0.00 0.00 50 1000.1
20260505224059 63 157 0.0 5.0 0.00 0.00 0.00 50 1000.0
20260505223559 63 180 5.0 5.0 0.00 0.00 0.00 50 1000.0
20260505223059 63 157 4.0 5.0 0.00 0.00 0.00 50 1000.0
20260505222559 63 157 4.0 6.0 0.00 0.00 0.00 50 1000.1
20260505222059 63 135 3.0 7.0 0.00 0.00 0.00 51 1000.0
20260505221559 63 157 4.0 5.0 0.00 0.00 0.00 51 1000.1
20260505221059 63 157 2.0 4.0 0.00 0.00 0.00 51 1000.1
20260505220559 63 157 1.0 5.0 0.00 0.00 0.00 51 1000.1
20260505220059 63 157 4.0 4.0 0.00 0.00 0.00 51 1000.1
20260505215559 63 157 2.0 3.0 0.00 0.00 0.00 51 1000.2
20260505215059 62 157 0.0 2.0 0.00 0.00 0.00 51 1000.2
20260505214559 62 157 0.0 4.0 0.00 0.00 0.00 51 1000.2
20260505214059 62 157 3.0 4.0 0.00 0.00 0.00 51 1000.1
20260505213559 62 157 0.0 4.0 0.00 0.00 0.00 51 1000.1
20260505213059 62 157 0.0 4.0 0.00 0.00 0.00 52 1000.1
20260505212559 62 135 0.0 4.0 0.00 0.00 0.00 52 1000.1
20260505212059 61 157 2.0 5.0 0.00 0.00 0.00 52 1000.1
20260505211559 61 135 0.0 4.0 0.00 0.00 0.00 53 1000.1
20260505211059 60 135 0.0 3.0 0.00 0.00 0.00 53 1000.1
20260505210559 60 135 0.0 3.0 0.00 0.00 0.00 52 1000.1
20260505210059 60 112 0.0 0.0 0.00 0.00 0.00 52 1000.2
20260505205559 59 112 0.0 0.0 0.00 0.00 0.00 53 1000.3
20260505205059 58 135 0.0 0.0 0.00 0.00 0.00 53 1000.3
20260505204559 58 157 0.0 0.0 0.00 0.00 0.00 53 1000.2
20260505204059 57 157 0.0 0.0 0.00 0.00 0.00 53 1000.2
20260505203601 56 157 0.0 0.0 0.00 0.00 0.00 53 1000.2
20260505203059 56 157 0.0 0.0 0.00 0.00 0.00 52 1000.1
20260505202559 57 157 0.0 0.0 0.00 0.00 0.00 51 1000.2
20260505202059 57 157 0.0 0.0 0.00 0.00 0.00 50 1000.1
20260505201559 57 157 0.0 0.0 0.00 0.00 0.00 50 1000.2
20260505201059 58 157 0.0 0.0 0.00 0.00 0.00 49 1000.1
20260505200559 59 157 0.0 0.0 0.00 0.00 0.00 48 1000.2
20260505200059 60 157 0.0 0.0 0.00 0.00 0.00 48 1000.1
20260505195559 60 157 0.0 0.0 0.00 0.00 0.00 49 1000.1
20260505195059 59 157 0.0 0.0 0.00 0.00 0.00 49 1000.1
20260505194559 59 157 0.0 0.0 0.00 0.00 0.00 50 1000.0
20260505194059 58 135 0.0 0.0 0.00 0.00 0.00 50 1000.1
20260505193559 58 135 0.0 0.0 0.00 0.00 0.00 50 1000.1
20260505193059 58 135 0.0 0.0 0.00 0.00 0.00 49 1000.0
20260505192559 59 135 0.0 0.0 0.00 0.00 0.00 48 1000.0
20260505192059 59 135 0.0 0.0 0.00 0.00 0.00 48 999.9
20260505191559 59 135 0.0 0.0 0.00 0.00 0.00 48 999.8
20260505191059 59 135 0.0 0.0 0.00 0.00 0.00 48 999.8
20260505190559 59 135 0.0 0.0 0.00 0.00 0.00 48 999.9
20260505190059 60 135 0.0 0.0 0.00 0.00 0.00 47 999.8
20260505185559 60 135 0.0 0.0 0.00 0.00 0.00 47 999.9
20260505185059 60 135 0.0 0.0 0.00 0.00 0.00 46 999.7
20260505184559 60 135 0.0 0.0 0.00 0.00 0.00 46 999.7
20260505184059 60 135 0.0 0.0 0.00 0.00 0.00 46 999.7
20260505183559 60 135 0.0 0.0 0.00 0.00 0.00 45 999.7
20260505183059 61 135 0.0 0.0 0.00 0.00 0.00 45 999.9
20260505182559 61 135 0.0 0.0 0.00 0.00 0.00 44 999.8
20260505182059 61 135 0.0 0.0 0.00 0.00 0.00 44 999.8
20260505181559 62 135 0.0 0.0 0.00 0.00 0.00 43 999.7
20260505181059 62 135 0.0 0.0 0.00 0.00 0.00 43 999.8
20260505180559 63 135 0.0 0.0 0.00 0.00 0.00 42 999.6
20260505180059 64 135 0.0 0.0 0.00 0.00 0.00 42 999.6
20260505175559 65 135 0.0 0.0 0.00 0.00 0.00 41 999.4
20260505175059 66 135 0.0 0.0 0.00 0.00 0.00 40 999.5
20260505174559 67 135 0.0 0.0 0.00 0.00 0.00 39 999.5
20260505174059 68 135 0.0 2.0 0.00 0.00 0.00 40 999.4
20260505173559 69 135 0.0 3.0 0.00 0.00 0.00 38 999.5
20260505173059 69 135 1.0 4.0 0.00 0.00 0.00 37 999.3
20260505172559 70 135 0.0 3.0 0.00 0.00 0.00 37 999.3
20260505172059 72 135 0.0 0.0 0.00 0.00 0.00 35 999.2
20260505171559 73 135 0.0 4.0 0.00 0.00 0.00 34 999.2
20260505171059 74 135 0.0 0.0 0.00 0.00 0.00 33 999.1
20260505170600 74 135 0.0 4.0 0.00 0.00 0.00 32 999.0
20260505170059 75 135 2.0 4.0 0.00 0.00 0.00 31 999.0
20260505165559 75 112 0.0 5.0 0.00 0.00 0.00 30 999.2
20260505165059 76 112 2.0 6.0 0.00 0.00 0.00 30 999.1
20260505164559 76 135 2.0 5.0 0.00 0.00 0.00 29 999.1
20260505164059 77 112 0.0 5.0 0.00 0.00 0.00 29 999.1
20260505163559 78 135 4.0 5.0 0.00 0.00 0.00 28 999.0
20260505163059 79 135 3.0 5.0 0.00 0.00 0.00 27 999.1
20260505162559 80 112 5.0 6.0 0.00 0.00 0.00 27 999.0
20260505162059 82 112 4.0 5.0 0.00 0.00 0.00 26 999.1
20260505161559 83 112 2.0 4.0 0.00 0.00 0.00 26 999.0
20260505161059 84 135 0.0 5.0 0.00 0.00 0.00 25 999.0
20260505160559 85 135 4.0 7.0 0.00 0.00 0.00 23 999.1
20260505153059 90 112 2.0 5.0 0.00 0.00 0.00 20 999.2
20260505152559 90 112 0.0 4.0 0.00 0.00 0.00 20 999.2
20260505152059 90 112 0.0 6.0 0.00 0.00 0.00 19 999.2
20260505151559 91 112 4.0 9.0 0.00 0.00 0.00 19 999.2
20260505151059 92 112 3.0 6.0 0.00 0.00 0.00 19 999.1
20260505150559 92 90 3.0 6.0 0.00 0.00 0.00 19 999.3
20260505140559 95 112 5.0 6.0 0.00 0.00 0.00 17 1000.0
20260505124600 97 135 0.0 3.0 0.00 0.00 0.00 14 1000.6